sensor_id;sensor_type;location;lat;lon;timestamp;temperature;humidity
10692;DHT22;5396;50.950;6.988;2023-04-03T00:01:20;3.90;99.90
10692;DHT22;5396;50.950;6.988;2023-04-03T00:03:46;3.80;99.90
10692;DHT22;5396;50.950;6.988;2023-04-03T00:06:12;3.80;99.90
10692;DHT22;5396;50.950;6.988;2023-04-03T00:08:39;3.70;99.90
10692;DHT22;5396;50.950;6.988;2023-04-03T00:11:05;3.70;99.90
10692;DHT22;5396;50.950;6.988;2023-04-03T00:13:31;3.60;99.90
10692;DHT22;5396;50.950;6.988;2023-04-03T00:15:57;3.60;99.90
10692;DHT22;5396;50.950;6.988;2023-04-03T00:18:23;3.60;99.90
10692;DHT22;5396;50.950;6.988;2023-04-03T00:20:48;3.50;99.90
10692;DHT22;5396;50.950;6.988;2023-04-03T00:23:14;3.50;99.90
10692;DHT22;5396;50.950;6.988;2023-04-03T00:25:40;3.50;99.90
10692;DHT22;5396;50.950;6.988;2023-04-03T00:28:06;3.50;99.90
10692;DHT22;5396;50.950;6.988;2023-04-03T00:30:32;3.50;99.90
10692;DHT22;5396;50.950;6.988;2023-04-03T00:32:58;3.40;99.90
10692;DHT22;5396;50.950;6.988;2023-04-03T00:35:24;3.40;99.90
10692;DHT22;5396;50.950;6.988;2023-04-03T00:37:52;3.30;99.90
10692;DHT22;5396;50.950;6.988;2023-04-03T00:40:19;3.30;99.90
10692;DHT22;5396;50.950;6.988;2023-04-03T00:42:46;3.20;99.90
10692;DHT22;5396;50.950;6.988;2023-04-03T00:45:22;3.20;99.90
10692;DHT22;5396;50.950;6.988;2023-04-03T00:47:48;3.10;99.90
10692;DHT22;5396;50.950;6.988;2023-04-03T00:50:14;3.10;99.90
10692;DHT22;5396;50.950;6.988;2023-04-03T00:52:40;3.00;99.90
10692;DHT22;5396;50.950;6.988;2023-04-03T00:55:07;3.00;99.90
10692;DHT22;5396;50.950;6.988;2023-04-03T00:57:34;2.90;99.90
10692;DHT22;5396;50.950;6.988;2023-04-03T01:00:09;2.80;99.90
10692;DHT22;5396;50.950;6.988;2023-04-03T01:02:35;2.80;99.90
10692;DHT22;5396;50.950;6.988;2023-04-03T01:05:01;2.70;99.90
10692;DHT22;5396;50.950;6.988;2023-04-03T01:07:29;2.70;99.90
10692;DHT22;5396;50.950;6.988;2023-04-03T01:10:08;2.60;99.90
10692;DHT22;5396;50.950;6.988;2023-04-03T01:12:37;2.60;99.90
10692;DHT22;5396;50.950;6.988;2023-04-03T01:15:12;2.70;99.90
10692;DHT22;5396;50.950;6.988;2023-04-03T01:17:50;2.70;99.90
10692;DHT22;5396;50.950;6.988;2023-04-03T01:25:36;2.70;99.90
10692;DHT22;5396;50.950;6.988;2023-04-03T01:28:03;2.70;99.90
10692;DHT22;5396;50.950;6.988;2023-04-03T01:30:32;2.80;99.90
10692;DHT22;5396;50.950;6.988;2023-04-03T01:32:59;2.80;99.90
10692;DHT22;5396;50.950;6.988;2023-04-03T01:35:25;2.80;99.90
10692;DHT22;5396;50.950;6.988;2023-04-03T01:37:50;2.80;99.90
10692;DHT22;5396;50.950;6.988;2023-04-03T01:40:16;2.90;99.90
10692;DHT22;5396;50.950;6.988;2023-04-03T01:42:42;2.80;99.90
10692;DHT22;5396;50.950;6.988;2023-04-03T01:45:08;2.80;99.90
10692;DHT22;5396;50.950;6.988;2023-04-03T01:47:34;2.70;99.90
10692;DHT22;5396;50.950;6.988;2023-04-03T01:49:59;2.70;99.90
10692;DHT22;5396;50.950;6.988;2023-04-03T01:52:25;2.60;99.90
10692;DHT22;5396;50.950;6.988;2023-04-03T01:54:51;2.60;99.90
10692;DHT22;5396;50.950;6.988;2023-04-03T01:57:16;2.50;99.90
10692;DHT22;5396;50.950;6.988;2023-04-03T01:59:42;2.50;99.90
10692;DHT22;5396;50.950;6.988;2023-04-03T02:02:08;2.50;99.90
10692;DHT22;5396;50.950;6.988;2023-04-03T02:04:33;2.50;99.90
10692;DHT22;5396;50.950;6.988;2023-04-03T02:06:59;2.50;99.90
10692;DHT22;5396;50.950;6.988;2023-04-03T02:09:25;2.40;99.90
10692;DHT22;5396;50.950;6.988;2023-04-03T02:11:52;2.30;99.90
10692;DHT22;5396;50.950;6.988;2023-04-03T02:14:18;2.30;99.90
10692;DHT22;5396;50.950;6.988;2023-04-03T02:16:43;2.20;99.90
10692;DHT22;5396;50.950;6.988;2023-04-03T02:19:09;2.20;99.90
10692;DHT22;5396;50.950;6.988;2023-04-03T02:21:35;2.20;99.90
10692;DHT22;5396;50.950;6.988;2023-04-03T02:24:00;2.20;99.90
10692;DHT22;5396;50.950;6.988;2023-04-03T02:26:26;2.20;99.90
10692;DHT22;5396;50.950;6.988;2023-04-03T02:28:52;2.30;99.90
10692;DHT22;5396;50.950;6.988;2023-04-03T02:31:18;2.20;99.90
10692;DHT22;5396;50.950;6.988;2023-04-03T02:33:43;2.20;99.90
10692;DHT22;5396;50.950;6.988;2023-04-03T02:36:09;2.20;99.90
10692;DHT22;5396;50.950;6.988;2023-04-03T02:38:35;2.30;99.90
10692;DHT22;5396;50.950;6.988;2023-04-03T02:41:06;2.30;99.90
10692;DHT22;5396;50.950;6.988;2023-04-03T02:43:32;2.30;99.90
10692;DHT22;5396;50.950;6.988;2023-04-03T02:45:58;2.30;99.90
10692;DHT22;5396;50.950;6.988;2023-04-03T02:48:24;2.30;99.90
10692;DHT22;5396;50.950;6.988;2023-04-03T02:50:50;2.30;99.90
10692;DHT22;5396;50.950;6.988;2023-04-03T02:53:16;2.30;99.90
10692;DHT22;5396;50.950;6.988;2023-04-03T02:55:41;2.30;99.90
10692;DHT22;5396;50.950;6.988;2023-04-03T02:58:07;2.20;99.90
10692;DHT22;5396;50.950;6.988;2023-04-03T03:00:33;2.30;99.90
10692;DHT22;5396;50.950;6.988;2023-04-03T03:02:58;2.30;99.90
10692;DHT22;5396;50.950;6.988;2023-04-03T03:05:24;2.30;99.90
10692;DHT22;5396;50.950;6.988;2023-04-03T03:07:49;2.30;99.90
10692;DHT22;5396;50.950;6.988;2023-04-03T03:10:15;2.30;99.90
10692;DHT22;5396;50.950;6.988;2023-04-03T03:12:41;2.30;99.90
10692;DHT22;5396;50.950;6.988;2023-04-03T03:15:07;2.20;99.90
10692;DHT22;5396;50.950;6.988;2023-04-03T03:17:33;2.30;99.90
10692;DHT22;5396;50.950;6.988;2023-04-03T03:19:59;2.30;99.90
10692;DHT22;5396;50.950;6.988;2023-04-03T03:22:26;2.20;99.90
10692;DHT22;5396;50.950;6.988;2023-04-03T03:24:51;2.20;99.90
10692;DHT22;5396;50.950;6.988;2023-04-03T03:27:17;2.20;99.90
10692;DHT22;5396;50.950;6.988;2023-04-03T03:29:43;2.10;99.90
10692;DHT22;5396;50.950;6.988;2023-04-03T03:32:08;2.10;99.90
10692;DHT22;5396;50.950;6.988;2023-04-03T03:34:34;2.10;99.90
10692;DHT22;5396;50.950;6.988;2023-04-03T03:37:00;2.10;99.90
10692;DHT22;5396;50.950;6.988;2023-04-03T03:39:25;2.00;99.90
10692;DHT22;5396;50.950;6.988;2023-04-03T03:41:51;2.00;99.90
10692;DHT22;5396;50.950;6.988;2023-04-03T03:44:19;2.00;99.90
10692;DHT22;5396;50.950;6.988;2023-04-03T03:46:46;1.90;99.90
10692;DHT22;5396;50.950;6.988;2023-04-03T03:49:11;1.90;99.90
10692;DHT22;5396;50.950;6.988;2023-04-03T03:51:38;1.90;99.90
10692;DHT22;5396;50.950;6.988;2023-04-03T03:54:04;1.90;99.90
10692;DHT22;5396;50.950;6.988;2023-04-03T03:56:33;1.90;99.90
10692;DHT22;5396;50.950;6.988;2023-04-03T03:59:08;1.90;99.90
10692;DHT22;5396;50.950;6.988;2023-04-03T04:01:33;1.80;99.90
10692;DHT22;5396;50.950;6.988;2023-04-03T04:03:59;1.80;99.90
10692;DHT22;5396;50.950;6.988;2023-04-03T04:06:24;1.80;99.90
10692;DHT22;5396;50.950;6.988;2023-04-03T04:08:50;1.70;99.90
10692;DHT22;5396;50.950;6.988;2023-04-03T04:11:16;1.80;99.90
10692;DHT22;5396;50.950;6.988;2023-04-03T04:13:41;1.70;99.90
10692;DHT22;5396;50.950;6.988;2023-04-03T04:16:08;1.70;99.90
10692;DHT22;5396;50.950;6.988;2023-04-03T04:18:33;1.70;99.90
10692;DHT22;5396;50.950;6.988;2023-04-03T04:20:59;1.70;99.90
10692;DHT22;5396;50.950;6.988;2023-04-03T04:23:25;1.60;99.90
10692;DHT22;5396;50.950;6.988;2023-04-03T04:25:51;1.70;99.90
10692;DHT22;5396;50.950;6.988;2023-04-03T04:28:17;1.70;99.90
10692;DHT22;5396;50.950;6.988;2023-04-03T04:30:42;1.70;99.90
10692;DHT22;5396;50.950;6.988;2023-04-03T04:33:08;1.70;99.90
10692;DHT22;5396;50.950;6.988;2023-04-03T04:35:34;1.70;99.90
10692;DHT22;5396;50.950;6.988;2023-04-03T04:38:00;1.80;99.90
10692;DHT22;5396;50.950;6.988;2023-04-03T04:40:26;1.80;99.90
10692;DHT22;5396;50.950;6.988;2023-04-03T04:42:52;1.80;99.90
10692;DHT22;5396;50.950;6.988;2023-04-03T04:45:17;1.70;99.90
10692;DHT22;5396;50.950;6.988;2023-04-03T04:47:43;1.70;99.90
10692;DHT22;5396;50.950;6.988;2023-04-03T04:50:09;1.70;99.90
10692;DHT22;5396;50.950;6.988;2023-04-03T04:52:35;1.60;99.90
10692;DHT22;5396;50.950;6.988;2023-04-03T04:55:00;1.60;99.90
10692;DHT22;5396;50.950;6.988;2023-04-03T04:57:26;1.60;99.90
10692;DHT22;5396;50.950;6.988;2023-04-03T04:59:54;1.60;99.90
10692;DHT22;5396;50.950;6.988;2023-04-03T05:02:20;1.60;99.90
10692;DHT22;5396;50.950;6.988;2023-04-03T05:04:45;1.60;99.90
10692;DHT22;5396;50.950;6.988;2023-04-03T05:07:11;1.50;99.90
10692;DHT22;5396;50.950;6.988;2023-04-03T05:09:36;1.60;99.90
10692;DHT22;5396;50.950;6.988;2023-04-03T05:12:02;1.50;99.90
10692;DHT22;5396;50.950;6.988;2023-04-03T05:14:28;1.50;99.90
10692;DHT22;5396;50.950;6.988;2023-04-03T05:16:54;1.50;99.90
10692;DHT22;5396;50.950;6.988;2023-04-03T05:19:23;1.60;99.90
10692;DHT22;5396;50.950;6.988;2023-04-03T05:21:48;1.60;99.90
10692;DHT22;5396;50.950;6.988;2023-04-03T05:24:15;1.60;99.90
10692;DHT22;5396;50.950;6.988;2023-04-03T05:26:42;1.70;99.90
10692;DHT22;5396;50.950;6.988;2023-04-03T05:29:08;1.70;99.90
10692;DHT22;5396;50.950;6.988;2023-04-03T05:31:34;1.70;99.90
10692;DHT22;5396;50.950;6.988;2023-04-03T05:34:00;1.70;99.90
10692;DHT22;5396;50.950;6.988;2023-04-03T05:36:25;1.80;99.90
10692;DHT22;5396;50.950;6.988;2023-04-03T05:38:52;1.90;99.90
10692;DHT22;5396;50.950;6.988;2023-04-03T05:41:18;2.00;99.90
10692;DHT22;5396;50.950;6.988;2023-04-03T05:43:44;2.10;99.90
10692;DHT22;5396;50.950;6.988;2023-04-03T05:46:12;2.10;99.90
10692;DHT22;5396;50.950;6.988;2023-04-03T05:48:38;2.10;99.90
10692;DHT22;5396;50.950;6.988;2023-04-03T05:51:07;2.00;99.90
10692;DHT22;5396;50.950;6.988;2023-04-03T05:53:35;2.00;99.90
10692;DHT22;5396;50.950;6.988;2023-04-03T05:56:03;2.10;99.90
10692;DHT22;5396;50.950;6.988;2023-04-03T05:58:29;2.20;99.90
10692;DHT22;5396;50.950;6.988;2023-04-03T06:00:54;2.30;99.90
10692;DHT22;5396;50.950;6.988;2023-04-03T06:03:20;2.30;99.90
10692;DHT22;5396;50.950;6.988;2023-04-03T06:05:46;2.30;99.90
10692;DHT22;5396;50.950;6.988;2023-04-03T06:08:12;2.40;99.90
10692;DHT22;5396;50.950;6.988;2023-04-03T06:10:38;2.40;99.90
10692;DHT22;5396;50.950;6.988;2023-04-03T06:13:04;2.40;99.90
10692;DHT22;5396;50.950;6.988;2023-04-03T06:15:30;2.50;99.90
10692;DHT22;5396;50.950;6.988;2023-04-03T06:17:55;2.50;99.90
10692;DHT22;5396;50.950;6.988;2023-04-03T06:20:21;2.60;99.90
10692;DHT22;5396;50.950;6.988;2023-04-03T06:22:47;2.70;99.90
10692;DHT22;5396;50.950;6.988;2023-04-03T06:25:13;2.70;99.90
10692;DHT22;5396;50.950;6.988;2023-04-03T06:27:39;2.80;99.90
10692;DHT22;5396;50.950;6.988;2023-04-03T06:30:06;2.90;99.90
10692;DHT22;5396;50.950;6.988;2023-04-03T06:32:32;2.90;99.90
10692;DHT22;5396;50.950;6.988;2023-04-03T06:34:57;3.00;99.90
10692;DHT22;5396;50.950;6.988;2023-04-03T06:37:24;3.10;99.90
10692;DHT22;5396;50.950;6.988;2023-04-03T06:39:54;3.10;99.90
10692;DHT22;5396;50.950;6.988;2023-04-03T06:42:20;3.20;99.90
10692;DHT22;5396;50.950;6.988;2023-04-03T06:44:46;3.30;99.90
10692;DHT22;5396;50.950;6.988;2023-04-03T06:47:16;3.30;99.90
10692;DHT22;5396;50.950;6.988;2023-04-03T06:49:42;3.30;99.90
10692;DHT22;5396;50.950;6.988;2023-04-03T06:52:08;3.40;99.90
10692;DHT22;5396;50.950;6.988;2023-04-03T06:54:35;3.50;99.90
10692;DHT22;5396;50.950;6.988;2023-04-03T06:57:00;3.60;99.90
10692;DHT22;5396;50.950;6.988;2023-04-03T06:59:26;3.80;99.90
10692;DHT22;5396;50.950;6.988;2023-04-03T07:01:52;3.90;99.90
10692;DHT22;5396;50.950;6.988;2023-04-03T07:04:17;4.00;99.90
10692;DHT22;5396;50.950;6.988;2023-04-03T07:06:45;4.00;99.90
10692;DHT22;5396;50.950;6.988;2023-04-03T07:09:13;4.00;99.90
10692;DHT22;5396;50.950;6.988;2023-04-03T07:11:39;4.00;99.90
10692;DHT22;5396;50.950;6.988;2023-04-03T07:14:04;4.00;99.90
10692;DHT22;5396;50.950;6.988;2023-04-03T07:16:31;4.00;99.90
10692;DHT22;5396;50.950;6.988;2023-04-03T07:18:57;4.00;99.90
10692;DHT22;5396;50.950;6.988;2023-04-03T07:21:23;4.00;99.90
10692;DHT22;5396;50.950;6.988;2023-04-03T07:23:49;4.00;99.90
10692;DHT22;5396;50.950;6.988;2023-04-03T07:26:15;4.00;99.90
10692;DHT22;5396;50.950;6.988;2023-04-03T07:28:41;4.10;99.90
10692;DHT22;5396;50.950;6.988;2023-04-03T07:31:10;4.10;99.90
10692;DHT22;5396;50.950;6.988;2023-04-03T07:33:38;4.20;99.90
10692;DHT22;5396;50.950;6.988;2023-04-03T07:36:04;4.30;99.90
10692;DHT22;5396;50.950;6.988;2023-04-03T07:38:32;4.20;99.90
10692;DHT22;5396;50.950;6.988;2023-04-03T07:40:57;4.30;99.90
10692;DHT22;5396;50.950;6.988;2023-04-03T07:43:23;4.40;99.90
10692;DHT22;5396;50.950;6.988;2023-04-03T07:45:50;4.40;99.90
10692;DHT22;5396;50.950;6.988;2023-04-03T07:48:18;4.50;99.90
10692;DHT22;5396;50.950;6.988;2023-04-03T07:50:44;4.50;99.90
10692;DHT22;5396;50.950;6.988;2023-04-03T07:53:10;4.60;99.90
10692;DHT22;5396;50.950;6.988;2023-04-03T07:55:36;4.60;99.90
10692;DHT22;5396;50.950;6.988;2023-04-03T07:58:11;4.60;99.90
10692;DHT22;5396;50.950;6.988;2023-04-03T08:00:37;4.60;99.90
10692;DHT22;5396;50.950;6.988;2023-04-03T08:03:04;4.70;99.90
10692;DHT22;5396;50.950;6.988;2023-04-03T08:05:30;4.70;99.90
10692;DHT22;5396;50.950;6.988;2023-04-03T08:07:56;4.70;99.90
10692;DHT22;5396;50.950;6.988;2023-04-03T08:10:21;4.70;99.90
10692;DHT22;5396;50.950;6.988;2023-04-03T08:12:47;4.70;99.90
10692;DHT22;5396;50.950;6.988;2023-04-03T08:15:13;4.80;99.90
10692;DHT22;5396;50.950;6.988;2023-04-03T08:17:39;4.90;99.90
10692;DHT22;5396;50.950;6.988;2023-04-03T08:20:06;5.00;99.90
10692;DHT22;5396;50.950;6.988;2023-04-03T08:22:32;5.10;99.90
10692;DHT22;5396;50.950;6.988;2023-04-03T08:24:58;5.20;99.90
10692;DHT22;5396;50.950;6.988;2023-04-03T08:27:23;5.30;99.90
10692;DHT22;5396;50.950;6.988;2023-04-03T08:29:49;5.40;99.90
10692;DHT22;5396;50.950;6.988;2023-04-03T08:32:15;5.40;99.90
10692;DHT22;5396;50.950;6.988;2023-04-03T08:34:41;5.50;99.90
10692;DHT22;5396;50.950;6.988;2023-04-03T08:37:06;5.40;99.90
10692;DHT22;5396;50.950;6.988;2023-04-03T08:39:32;5.40;99.90
10692;DHT22;5396;50.950;6.988;2023-04-03T08:42:00;5.30;99.90
10692;DHT22;5396;50.950;6.988;2023-04-03T08:47:43;5.60;99.90
10692;DHT22;5396;50.950;6.988;2023-04-03T08:50:17;5.60;99.90
10692;DHT22;5396;50.950;6.988;2023-04-03T08:52:56;5.70;99.90
10692;DHT22;5396;50.950;6.988;2023-04-03T09:00:54;6.00;99.90
10692;DHT22;5396;50.950;6.988;2023-04-03T09:03:20;6.10;99.90
10692;DHT22;5396;50.950;6.988;2023-04-03T09:06:01;6.20;99.90
10692;DHT22;5396;50.950;6.988;2023-04-03T09:08:37;6.20;99.90
10692;DHT22;5396;50.950;6.988;2023-04-03T09:11:12;6.30;99.90
10692;DHT22;5396;50.950;6.988;2023-04-03T09:13:50;6.30;99.90
10692;DHT22;5396;50.950;6.988;2023-04-03T09:16:20;6.30;99.90
10692;DHT22;5396;50.950;6.988;2023-04-03T09:19:07;6.40;99.90
10692;DHT22;5396;50.950;6.988;2023-04-03T09:21:37;6.50;99.90
10692;DHT22;5396;50.950;6.988;2023-04-03T09:24:05;6.60;99.90
10692;DHT22;5396;50.950;6.988;2023-04-03T09:26:55;6.40;99.90
10692;DHT22;5396;50.950;6.988;2023-04-03T09:29:23;6.40;99.90
10692;DHT22;5396;50.950;6.988;2023-04-03T09:31:52;6.30;99.90
10692;DHT22;5396;50.950;6.988;2023-04-03T09:34:35;6.30;99.90
10692;DHT22;5396;50.950;6.988;2023-04-03T09:37:03;6.30;99.90
10692;DHT22;5396;50.950;6.988;2023-04-03T09:39:48;6.30;99.90
10692;DHT22;5396;50.950;6.988;2023-04-03T09:42:19;6.50;99.90
10692;DHT22;5396;50.950;6.988;2023-04-03T09:45:03;6.70;99.90
10692;DHT22;5396;50.950;6.988;2023-04-03T09:47:36;7.00;99.90
10692;DHT22;5396;50.950;6.988;2023-04-03T09:52:41;7.20;99.90
10692;DHT22;5396;50.950;6.988;2023-04-03T09:55:17;7.30;99.90
10692;DHT22;5396;50.950;6.988;2023-04-03T09:57:47;7.40;99.90
10692;DHT22;5396;50.950;6.988;2023-04-03T10:00:22;7.50;99.90
10692;DHT22;5396;50.950;6.988;2023-04-03T10:02:52;7.50;99.90
10692;DHT22;5396;50.950;6.988;2023-04-03T10:05:35;7.60;99.90
10692;DHT22;5396;50.950;6.988;2023-04-03T10:10:37;7.60;99.90
10692;DHT22;5396;50.950;6.988;2023-04-03T10:13:17;7.50;99.90
10692;DHT22;5396;50.950;6.988;2023-04-03T10:15:56;7.50;99.90
10692;DHT22;5396;50.950;6.988;2023-04-03T10:18:56;7.60;99.90
10692;DHT22;5396;50.950;6.988;2023-04-03T10:21:45;7.60;99.90
10692;DHT22;5396;50.950;6.988;2023-04-03T10:24:23;7.60;99.90
10692;DHT22;5396;50.950;6.988;2023-04-03T10:27:16;7.70;99.90
10692;DHT22;5396;50.950;6.988;2023-04-03T10:32:42;7.80;99.90
10692;DHT22;5396;50.950;6.988;2023-04-03T10:35:23;7.90;99.90
10692;DHT22;5396;50.950;6.988;2023-04-03T10:45:53;8.10;99.90
10692;DHT22;5396;50.950;6.988;2023-04-03T10:48:36;8.20;99.90
10692;DHT22;5396;50.950;6.988;2023-04-03T10:51:10;8.30;99.90
10692;DHT22;5396;50.950;6.988;2023-04-03T10:53:51;8.30;99.90
10692;DHT22;5396;50.950;6.988;2023-04-03T10:56:42;8.40;99.90
10692;DHT22;5396;50.950;6.988;2023-04-03T10:59:32;8.50;99.90
10692;DHT22;5396;50.950;6.988;2023-04-03T11:02:03;8.40;99.90
10692;DHT22;5396;50.950;6.988;2023-04-03T11:04:34;8.60;99.90
10692;DHT22;5396;50.950;6.988;2023-04-03T11:07:10;8.60;99.90
10692;DHT22;5396;50.950;6.988;2023-04-03T11:09:41;8.70;99.90
10692;DHT22;5396;50.950;6.988;2023-04-03T11:12:17;8.50;99.90
10692;DHT22;5396;50.950;6.988;2023-04-03T11:14:47;8.50;99.90
10692;DHT22;5396;50.950;6.988;2023-04-03T11:19:59;8.50;99.90
10692;DHT22;5396;50.950;6.988;2023-04-03T11:22:35;8.50;99.90
10692;DHT22;5396;50.950;6.988;2023-04-03T11:27:56;8.60;99.90
10692;DHT22;5396;50.950;6.988;2023-04-03T11:35:53;8.90;99.90
10692;DHT22;5396;50.950;6.988;2023-04-03T11:38:32;8.90;99.90
10692;DHT22;5396;50.950;6.988;2023-04-03T11:41:02;9.00;99.90
10692;DHT22;5396;50.950;6.988;2023-04-03T11:43:31;8.90;99.90
10692;DHT22;5396;50.950;6.988;2023-04-03T11:46:07;9.00;99.90
10692;DHT22;5396;50.950;6.988;2023-04-03T11:53:53;9.10;99.90
10692;DHT22;5396;50.950;6.988;2023-04-03T12:01:57;9.40;99.90
10692;DHT22;5396;50.950;6.988;2023-04-03T12:04:27;9.60;99.90
10692;DHT22;5396;50.950;6.988;2023-04-03T12:07:22;9.70;99.90
10692;DHT22;5396;50.950;6.988;2023-04-03T12:12:35;9.70;99.90
10692;DHT22;5396;50.950;6.988;2023-04-03T12:15:24;9.60;99.90
10692;DHT22;5396;50.950;6.988;2023-04-03T12:17:50;9.50;99.90
10692;DHT22;5396;50.950;6.988;2023-04-03T12:23:34;9.60;99.90
10692;DHT22;5396;50.950;6.988;2023-04-03T12:26:22;9.60;99.90
10692;DHT22;5396;50.950;6.988;2023-04-03T12:28:49;9.70;99.90
10692;DHT22;5396;50.950;6.988;2023-04-03T12:31:16;9.60;99.90
10692;DHT22;5396;50.950;6.988;2023-04-03T12:34:09;9.50;99.90
10692;DHT22;5396;50.950;6.988;2023-04-03T12:36:58;9.60;99.90
10692;DHT22;5396;50.950;6.988;2023-04-03T12:39:42;9.70;99.90
10692;DHT22;5396;50.950;6.988;2023-04-03T12:45:09;9.90;99.90
10692;DHT22;5396;50.950;6.988;2023-04-03T12:47:42;10.00;99.90
10692;DHT22;5396;50.950;6.988;2023-04-03T12:55:21;9.70;99.90
10692;DHT22;5396;50.950;6.988;2023-04-03T12:57:48;9.70;99.90
10692;DHT22;5396;50.950;6.988;2023-04-03T13:00:34;9.80;99.90
10692;DHT22;5396;50.950;6.988;2023-04-03T13:03:04;9.90;99.90
10692;DHT22;5396;50.950;6.988;2023-04-03T13:05:31;10.10;99.90
10692;DHT22;5396;50.950;6.988;2023-04-03T13:08:00;11.00;99.90
10692;DHT22;5396;50.950;6.988;2023-04-03T13:10:28;12.50;99.90
10692;DHT22;5396;50.950;6.988;2023-04-03T13:13:06;13.60;99.90
10692;DHT22;5396;50.950;6.988;2023-04-03T13:15:45;14.60;99.90
10692;DHT22;5396;50.950;6.988;2023-04-03T13:20:53;14.50;99.90
10692;DHT22;5396;50.950;6.988;2023-04-03T13:23:22;14.00;99.90
10692;DHT22;5396;50.950;6.988;2023-04-03T13:25:48;14.20;99.90
10692;DHT22;5396;50.950;6.988;2023-04-03T13:28:20;14.80;99.90
10692;DHT22;5396;50.950;6.988;2023-04-03T13:31:03;15.50;99.90
10692;DHT22;5396;50.950;6.988;2023-04-03T13:33:33;16.60;99.90
10692;DHT22;5396;50.950;6.988;2023-04-03T13:38:32;17.00;99.90
10692;DHT22;5396;50.950;6.988;2023-04-03T13:41:02;17.30;99.90
10692;DHT22;5396;50.950;6.988;2023-04-03T13:43:31;16.40;99.90
10692;DHT22;5396;50.950;6.988;2023-04-03T13:46:22;16.40;99.90
10692;DHT22;5396;50.950;6.988;2023-04-03T13:48:53;16.00;99.90
10692;DHT22;5396;50.950;6.988;2023-04-03T13:51:22;16.10;99.90
10692;DHT22;5396;50.950;6.988;2023-04-03T13:53:57;17.40;99.90
10692;DHT22;5396;50.950;6.988;2023-04-03T13:59:23;17.50;99.90
10692;DHT22;5396;50.950;6.988;2023-04-03T14:04:52;17.10;99.90
10692;DHT22;5396;50.950;6.988;2023-04-03T14:07:21;18.00;99.90
10692;DHT22;5396;50.950;6.988;2023-04-03T14:09:48;19.30;99.90
10692;DHT22;5396;50.950;6.988;2023-04-03T14:14:42;19.90;99.90
10692;DHT22;5396;50.950;6.988;2023-04-03T14:17:16;18.60;99.90
10692;DHT22;5396;50.950;6.988;2023-04-03T14:19:42;19.30;99.90
10692;DHT22;5396;50.950;6.988;2023-04-03T14:22:20;18.80;99.90
10692;DHT22;5396;50.950;6.988;2023-04-03T14:24:48;19.60;99.90
10692;DHT22;5396;50.950;6.988;2023-04-03T14:27:24;20.30;99.90
10692;DHT22;5396;50.950;6.988;2023-04-03T14:29:52;21.20;99.90
10692;DHT22;5396;50.950;6.988;2023-04-03T14:32:20;20.80;99.90
10692;DHT22;5396;50.950;6.988;2023-04-03T14:34:46;19.70;99.90
10692;DHT22;5396;50.950;6.988;2023-04-03T14:37:16;20.30;99.90
10692;DHT22;5396;50.950;6.988;2023-04-03T14:39:42;20.60;99.90
10692;DHT22;5396;50.950;6.988;2023-04-03T14:42:13;19.40;99.90
10692;DHT22;5396;50.950;6.988;2023-04-03T14:44:40;17.70;99.90
10692;DHT22;5396;50.950;6.988;2023-04-03T14:47:10;16.50;99.90
10692;DHT22;5396;50.950;6.988;2023-04-03T14:49:36;16.00;99.90
10692;DHT22;5396;50.950;6.988;2023-04-03T14:52:01;15.70;99.90
10692;DHT22;5396;50.950;6.988;2023-04-03T14:54:27;15.20;99.90
10692;DHT22;5396;50.950;6.988;2023-04-03T14:56:55;15.20;99.90
10692;DHT22;5396;50.950;6.988;2023-04-03T14:59:22;15.30;99.90
10692;DHT22;5396;50.950;6.988;2023-04-03T15:01:48;14.90;99.90
10692;DHT22;5396;50.950;6.988;2023-04-03T15:04:15;14.60;99.90
10692;DHT22;5396;50.950;6.988;2023-04-03T15:06:41;14.70;99.90
10692;DHT22;5396;50.950;6.988;2023-04-03T15:09:24;14.90;99.90
10692;DHT22;5396;50.950;6.988;2023-04-03T15:11:51;15.20;99.90
10692;DHT22;5396;50.950;6.988;2023-04-03T15:14:17;15.50;99.90
10692;DHT22;5396;50.950;6.988;2023-04-03T15:16:43;14.80;99.90
10692;DHT22;5396;50.950;6.988;2023-04-03T15:19:09;14.70;99.90
10692;DHT22;5396;50.950;6.988;2023-04-03T15:21:35;13.90;99.90
10692;DHT22;5396;50.950;6.988;2023-04-03T15:24:00;13.60;99.90
10692;DHT22;5396;50.950;6.988;2023-04-03T15:26:26;13.90;99.90
10692;DHT22;5396;50.950;6.988;2023-04-03T15:28:52;14.30;99.90
10692;DHT22;5396;50.950;6.988;2023-04-03T15:31:17;13.50;99.90
10692;DHT22;5396;50.950;6.988;2023-04-03T15:33:43;13.40;99.90
10692;DHT22;5396;50.950;6.988;2023-04-03T15:36:09;12.90;99.90
10692;DHT22;5396;50.950;6.988;2023-04-03T15:38:34;12.80;99.90
10692;DHT22;5396;50.950;6.988;2023-04-03T15:41:00;12.80;99.90
10692;DHT22;5396;50.950;6.988;2023-04-03T15:43:26;12.90;99.90
10692;DHT22;5396;50.950;6.988;2023-04-03T15:45:52;13.50;99.90
10692;DHT22;5396;50.950;6.988;2023-04-03T15:48:20;14.40;99.90
10692;DHT22;5396;50.950;6.988;2023-04-03T15:50:46;14.90;99.90
10692;DHT22;5396;50.950;6.988;2023-04-03T15:53:11;15.80;99.90
10692;DHT22;5396;50.950;6.988;2023-04-03T15:55:38;16.70;99.90
10692;DHT22;5396;50.950;6.988;2023-04-03T15:58:03;17.50;99.90
10692;DHT22;5396;50.950;6.988;2023-04-03T16:00:30;17.30;99.90
10692;DHT22;5396;50.950;6.988;2023-04-03T16:03:04;16.20;99.90
10692;DHT22;5396;50.950;6.988;2023-04-03T16:05:31;15.90;99.90
10692;DHT22;5396;50.950;6.988;2023-04-03T16:07:58;15.90;99.90
10692;DHT22;5396;50.950;6.988;2023-04-03T16:10:24;15.80;99.90
10692;DHT22;5396;50.950;6.988;2023-04-03T16:12:50;15.80;99.90
10692;DHT22;5396;50.950;6.988;2023-04-03T16:15:16;15.80;99.90
10692;DHT22;5396;50.950;6.988;2023-04-03T16:17:42;16.00;99.90
10692;DHT22;5396;50.950;6.988;2023-04-03T16:20:09;15.70;99.90
10692;DHT22;5396;50.950;6.988;2023-04-03T16:22:36;15.10;99.90
10692;DHT22;5396;50.950;6.988;2023-04-03T16:25:02;14.70;99.90
10692;DHT22;5396;50.950;6.988;2023-04-03T16:27:28;14.70;99.90
10692;DHT22;5396;50.950;6.988;2023-04-03T16:29:56;14.50;99.90
10692;DHT22;5396;50.950;6.988;2023-04-03T16:32:24;14.00;99.90
10692;DHT22;5396;50.950;6.988;2023-04-03T16:34:51;13.50;99.90
10692;DHT22;5396;50.950;6.988;2023-04-03T16:37:17;13.10;99.90
10692;DHT22;5396;50.950;6.988;2023-04-03T16:39:43;13.30;99.90
10692;DHT22;5396;50.950;6.988;2023-04-03T16:42:08;13.50;99.90
10692;DHT22;5396;50.950;6.988;2023-04-03T16:44:35;14.00;99.90
10692;DHT22;5396;50.950;6.988;2023-04-03T16:47:01;13.70;99.90
10692;DHT22;5396;50.950;6.988;2023-04-03T16:49:27;12.80;99.90
10692;DHT22;5396;50.950;6.988;2023-04-03T16:51:57;12.60;99.90
10692;DHT22;5396;50.950;6.988;2023-04-03T16:54:23;12.10;99.90
10692;DHT22;5396;50.950;6.988;2023-04-03T16:56:48;11.80;99.90
10692;DHT22;5396;50.950;6.988;2023-04-03T16:59:14;11.40;99.90
10692;DHT22;5396;50.950;6.988;2023-04-03T17:01:40;11.00;99.90
10692;DHT22;5396;50.950;6.988;2023-04-03T17:04:05;10.80;99.90
10692;DHT22;5396;50.950;6.988;2023-04-03T17:06:31;10.50;99.90
10692;DHT22;5396;50.950;6.988;2023-04-03T17:09:00;10.50;99.90
10692;DHT22;5396;50.950;6.988;2023-04-03T17:11:26;10.30;99.90
10692;DHT22;5396;50.950;6.988;2023-04-03T17:13:52;10.50;99.90
10692;DHT22;5396;50.950;6.988;2023-04-03T17:16:18;10.60;99.90
10692;DHT22;5396;50.950;6.988;2023-04-03T17:18:43;11.00;99.90
10692;DHT22;5396;50.950;6.988;2023-04-03T17:21:11;11.00;99.90
10692;DHT22;5396;50.950;6.988;2023-04-03T17:23:37;11.00;99.90
10692;DHT22;5396;50.950;6.988;2023-04-03T17:26:04;10.80;99.90